Time;durP1;ratioP1;P1;durP2;ratioP2;P2;SDS_P1;SDS_P2;PMS_P1;PMS_P2;Temp;Humidity;BMP_temperature;BMP_pressure;BME280_temperature;BME280_humidity;BME280_pressure;Samples;Min_cycle;Max_cycle;Signal;HPM_P1;HPM_P2
2022/06/02 00:01:59;;;;;;;2.13;1.70;;;;;;;;;;4952829;29;20453;-79
2022/06/02 00:04:29;;;;;;;2.00;1.90;;;;;;;;;;4954418;29;20538;-79
2022/06/02 00:07:02;;;;;;;2.13;1.90;;;;;;;;;;4954325;29;20480;-79
2022/06/02 00:09:36;;;;;;;2.20;2.00;;;;;;;;;;4953427;29;20448;-79
2022/06/02 00:12:06;;;;;;;2.17;1.97;;;;;;;;;;4935799;29;20541;-79
2022/06/02 00:14:37;;;;;;;2.17;1.97;;;;;;;;;;4953058;29;20459;-79
2022/06/02 00:17:08;;;;;;;3.73;2.93;;;;;;;;;;4953703;28;20456;-79
2022/06/02 00:19:51;;;;;;;2.60;1.50;;;;;;;;;;4935628;29;20510;-79
2022/06/02 00:22:23;;;;;;;2.23;2.03;;;;;;;;;;4932177;29;20456;-79
2022/06/02 00:24:54;;;;;;;1.93;1.80;;;;;;;;;;4935572;29;20459;-79
2022/06/02 00:27:25;;;;;;;2.73;1.97;;;;;;;;;;4935735;29;20480;-79
2022/06/02 00:29:58;;;;;;;2.10;1.90;;;;;;;;;;4935740;29;20460;-79
2022/06/02 00:32:31;;;;;;;2.30;1.90;;;;;;;;;;4935607;29;20463;-79
2022/06/02 00:35:04;;;;;;;2.03;1.83;;;;;;;;;;4933315;29;20461;-79
2022/06/02 00:37:36;;;;;;;4.40;2.40;;;;;;;;;;4953015;29;20457;-79
2022/06/02 00:40:07;;;;;;;1.90;1.70;;;;;;;;;;4935556;29;20459;-79
2022/06/02 00:42:41;;;;;;;1.70;1.60;;;;;;;;;;4921608;29;21023;-79
2022/06/02 00:45:08;;;;;;;1.97;1.87;;;;;;;;;;4954409;29;20874;-79
2022/06/02 00:47:42;;;;;;;2.13;1.73;;;;;;;;;;4934505;29;20515;-79
2022/06/02 00:50:11;;;;;;;2.90;1.80;;;;;;;;;;4923125;29;20479;-79
2022/06/02 00:52:42;;;;;;;2.03;1.83;;;;;;;;;;4943249;28;20460;-79
2022/06/02 00:58:12;;;;;;;1.90;1.63;;;;;;;;;;4947003;29;20435;-79
2022/06/02 01:00:42;;;;;;;2.43;2.23;;;;;;;;;;4938392;29;20966;-79
2022/06/02 01:03:12;;;;;;;2.40;1.63;;;;;;;;;;4948000;29;20948;-79
2022/06/02 01:05:49;;;;;;;2.17;1.97;;;;;;;;;;4941168;29;20463;-78
2022/06/02 01:08:23;;;;;;;2.63;1.60;;;;;;;;;;4949168;28;20498;-78
2022/06/02 01:10:55;;;;;;;4.13;2.23;;;;;;;;;;4950501;29;20452;-78
2022/06/02 01:13:37;;;;;;;2.00;1.50;;;;;;;;;;4951277;29;20456;-78
2022/06/02 01:16:10;;;;;;;2.83;2.20;;;;;;;;;;4936073;29;20472;-78
2022/06/02 01:18:44;;;;;;;2.00;1.70;;;;;;;;;;4948163;29;20887;-78
2022/06/02 01:21:41;;;;;;;2.03;1.60;;;;;;;;;;4949095;29;20791;-79
2022/06/02 01:24:26;;;;;;;3.87;2.77;;;;;;;;;;4952313;28;20443;-79
2022/06/02 01:27:07;;;;;;;2.70;1.80;;;;;;;;;;4950596;29;20481;-79
2022/06/02 01:29:46;;;;;;;2.23;2.03;;;;;;;;;;4952392;29;20498;-79
2022/06/02 01:32:16;;;;;;;2.20;2.00;;;;;;;;;;4953094;29;20502;-79
2022/06/02 01:34:51;;;;;;;2.80;2.60;;;;;;;;;;4951400;29;20458;-79
2022/06/02 01:37:21;;;;;;;2.30;2.10;;;;;;;;;;4950796;29;20470;-78
2022/06/02 01:39:55;;;;;;;2.90;2.30;;;;;;;;;;4950511;29;20458;-79
2022/06/02 01:42:27;;;;;;;2.07;1.87;;;;;;;;;;4950722;28;20466;-79
2022/06/02 01:44:58;;;;;;;2.57;2.20;;;;;;;;;;4951998;29;21001;-79
2022/06/02 01:47:30;;;;;;;2.27;1.70;;;;;;;;;;4941058;29;20887;-79
2022/06/02 01:50:02;;;;;;;2.10;1.80;;;;;;;;;;4939363;28;20930;-78
2022/06/02 01:52:37;;;;;;;2.00;1.77;;;;;;;;;;4947111;29;20514;-79
2022/06/02 01:55:10;;;;;;;1.80;1.70;;;;;;;;;;4961341;28;20500;-79
2022/06/02 01:57:44;;;;;;;2.53;1.80;;;;;;;;;;4952649;29;20778;-78
2022/06/02 02:00:15;;;;;;;2.43;2.00;;;;;;;;;;4950209;28;20452;-79
2022/06/02 02:02:50;;;;;;;2.27;1.93;;;;;;;;;;4950605;29;20463;-79
2022/06/02 02:05:25;;;;;;;2.63;2.20;;;;;;;;;;4951312;29;20450;-75
2022/06/02 02:07:58;;;;;;;2.27;1.67;;;;;;;;;;4947441;29;20470;-75
2022/06/02 02:10:28;;;;;;;2.40;1.97;;;;;;;;;;4962645;28;20547;-76
2022/06/02 02:12:58;;;;;;;2.80;2.00;;;;;;;;;;4947229;29;20553;-76
2022/06/02 02:15:28;;;;;;;1.90;1.80;;;;;;;;;;4940375;29;20443;-76
2022/06/02 02:18:03;;;;;;;5.20;2.30;;;;;;;;;;4966246;28;20486;-76
2022/06/02 02:20:32;;;;;;;2.37;2.17;;;;;;;;;;4949708;29;20447;-76
2022/06/02 02:23:02;;;;;;;2.00;1.80;;;;;;;;;;4966299;28;20546;-76
2022/06/02 02:25:31;;;;;;;3.57;2.83;;;;;;;;;;4950644;29;20530;-76
2022/06/02 02:28:06;;;;;;;2.13;1.93;;;;;;;;;;4950524;29;20490;-76
2022/06/02 02:30:39;;;;;;;2.30;2.10;;;;;;;;;;4949648;29;20455;-76
2022/06/02 02:33:12;;;;;;;2.00;1.90;;;;;;;;;;4946667;29;20455;-76
2022/06/02 02:35:41;;;;;;;1.97;1.77;;;;;;;;;;4950113;28;20463;-76
2022/06/02 02:38:10;;;;;;;2.00;1.77;;;;;;;;;;4959591;28;20549;-76
2022/06/02 02:40:40;;;;;;;2.10;1.90;;;;;;;;;;4933712;29;20459;-76
2022/06/02 02:43:08;;;;;;;3.27;2.47;;;;;;;;;;4951370;29;20455;-76
2022/06/02 02:45:39;;;;;;;2.40;2.20;;;;;;;;;;4951837;29;20447;-75
2022/06/02 02:48:12;;;;;;;2.43;2.20;;;;;;;;;;4950789;29;20470;-76
2022/06/02 02:50:41;;;;;;;2.90;2.30;;;;;;;;;;4949691;29;20479;-78
2022/06/02 02:53:12;;;;;;;3.03;2.57;;;;;;;;;;4950600;28;20541;-78
2022/06/02 02:55:42;;;;;;;2.50;2.17;;;;;;;;;;4953940;29;20467;-76
2022/06/02 02:58:11;;;;;;;2.80;2.20;;;;;;;;;;4953909;29;20824;-75
2022/06/02 03:00:39;;;;;;;2.57;2.37;;;;;;;;;;4951984;29;20474;-76
2022/06/02 03:03:11;;;;;;;4.07;2.60;;;;;;;;;;4953416;29;20454;-76
2022/06/02 03:05:48;;;;;;;3.60;3.30;;;;;;;;;;4955240;29;20458;-75
2022/06/02 03:08:18;;;;;;;5.13;3.20;;;;;;;;;;4953328;29;20471;-75
2022/06/02 03:10:45;;;;;;;2.63;2.43;;;;;;;;;;4951675;29;20822;-75
2022/06/02 03:13:19;;;;;;;2.73;2.53;;;;;;;;;;4955020;29;20483;-75
2022/06/02 03:15:47;;;;;;;2.90;2.57;;;;;;;;;;4944898;29;20460;-75
2022/06/02 03:18:28;;;;;;;3.13;2.83;;;;;;;;;;4963471;28;20902;-75
2022/06/02 03:21:02;;;;;;;4.00;3.13;;;;;;;;;;4948774;29;20803;-75
2022/06/02 03:23:46;;;;;;;3.40;2.77;;;;;;;;;;4955026;29;20450;-75
2022/06/02 03:26:17;;;;;;;2.63;2.43;;;;;;;;;;4952685;29;20463;-77
2022/06/02 03:28:49;;;;;;;4.80;2.60;;;;;;;;;;4948657;29;20479;-77
2022/06/02 03:31:18;;;;;;;2.50;2.30;;;;;;;;;;4953039;28;20894;-76
2022/06/02 03:33:54;;;;;;;2.80;2.60;;;;;;;;;;4953079;29;20467;-76
2022/06/02 03:36:28;;;;;;;3.00;2.80;;;;;;;;;;4951723;29;20458;-77
2022/06/02 03:39:00;;;;;;;3.93;3.00;;;;;;;;;;4950305;29;20447;-76
2022/06/02 03:41:31;;;;;;;2.80;2.50;;;;;;;;;;4952723;29;20550;-76
2022/06/02 03:44:01;;;;;;;2.63;2.43;;;;;;;;;;4952986;29;20458;-76
2022/06/02 03:46:36;;;;;;;3.50;2.60;;;;;;;;;;4949607;29;20474;-76
2022/06/02 03:49:20;;;;;;;2.80;2.60;;;;;;;;;;4934898;29;20482;-76
2022/06/02 03:51:56;;;;;;;3.47;2.77;;;;;;;;;;4926614;29;20594;-76
2022/06/02 03:54:34;;;;;;;2.90;2.70;;;;;;;;;;4950076;29;20961;-76
2022/06/02 03:57:05;;;;;;;3.50;2.60;;;;;;;;;;4937875;29;20900;-77
2022/06/02 03:59:49;;;;;;;2.70;2.50;;;;;;;;;;4968635;28;20448;-76
2022/06/02 04:02:20;;;;;;;2.90;2.37;;;;;;;;;;4952171;29;20869;-77
2022/06/02 04:04:51;;;;;;;3.83;2.50;;;;;;;;;;4950672;28;20465;-76
2022/06/02 04:07:30;;;;;;;2.70;2.30;;;;;;;;;;4954050;29;20487;-76
2022/06/02 04:10:00;;;;;;;2.50;2.30;;;;;;;;;;4952231;29;20490;-76
2022/06/02 04:15:31;;;;;;;2.57;2.37;;;;;;;;;;4940429;29;20809;-76
2022/06/02 04:18:03;;;;;;;2.60;2.40;;;;;;;;;;4967770;28;20463;-77
2022/06/02 04:20:37;;;;;;;5.27;3.13;;;;;;;;;;4951070;29;20814;-77
2022/06/02 04:23:16;;;;;;;4.73;2.40;;;;;;;;;;4939557;29;20946;-76
2022/06/02 04:25:49;;;;;;;3.10;2.73;;;;;;;;;;4952479;29;20550;-76
2022/06/02 04:28:19;;;;;;;2.87;2.30;;;;;;;;;;4967144;28;20464;-77
2022/06/02 04:30:51;;;;;;;2.50;2.30;;;;;;;;;;4951629;29;20463;-77
2022/06/02 04:33:23;;;;;;;3.20;2.77;;;;;;;;;;4953175;28;20922;-77
2022/06/02 04:35:54;;;;;;;2.57;2.37;;;;;;;;;;4948402;29;20468;-76
2022/06/02 04:38:25;;;;;;;2.90;2.60;;;;;;;;;;4949503;29;20451;-76
2022/06/02 04:40:56;;;;;;;3.20;2.83;;;;;;;;;;4951598;29;20475;-76
2022/06/02 04:43:26;;;;;;;2.80;2.60;;;;;;;;;;4951752;29;20455;-76
2022/06/02 04:45:56;;;;;;;3.73;2.90;;;;;;;;;;4952250;29;20463;-76
2022/06/02 04:48:25;;;;;;;4.17;2.57;;;;;;;;;;4951562;29;20989;-76
2022/06/02 04:50:55;;;;;;;3.27;2.80;;;;;;;;;;4942869;28;20518;-76
2022/06/02 04:53:29;;;;;;;3.60;3.10;;;;;;;;;;4946678;29;20452;-76
2022/06/02 04:55:59;;;;;;;5.00;3.37;;;;;;;;;;4947211;29;20848;-76
2022/06/02 04:58:29;;;;;;;11.30;3.27;;;;;;;;;;4934866;29;20439;-73
2022/06/02 05:00:58;;;;;;;6.70;3.50;;;;;;;;;;4950672;29;20455;-76
2022/06/02 05:03:28;;;;;;;6.40;2.80;;;;;;;;;;4926992;29;20563;-76
2022/06/02 05:05:59;;;;;;;4.60;2.80;;;;;;;;;;4942550;29;20455;-76
2022/06/02 05:08:36;;;;;;;3.17;2.87;;;;;;;;;;4951656;29;20463;-76
2022/06/02 05:11:08;;;;;;;3.30;3.00;;;;;;;;;;4934625;29;20505;-76
2022/06/02 05:13:38;;;;;;;6.50;3.50;;;;;;;;;;4931181;29;20447;-76
2022/06/02 05:16:16;;;;;;;3.57;2.90;;;;;;;;;;4944546;28;21051;-76
2022/06/02 05:19:02;;;;;;;3.40;3.10;;;;;;;;;;4952209;29;20787;-76
2022/06/02 05:21:44;;;;;;;4.93;3.67;;;;;;;;;;4935098;29;20788;-76
2022/06/02 05:24:27;;;;;;;3.70;3.30;;;;;;;;;;4939720;29;20440;-76
2022/06/02 05:27:04;;;;;;;3.30;3.00;;;;;;;;;;4933933;29;20463;-76
2022/06/02 05:29:39;;;;;;;3.17;2.87;;;;;;;;;;4934665;29;21048;-76
2022/06/02 05:32:22;;;;;;;3.80;3.00;;;;;;;;;;4953523;29;20459;-76
2022/06/02 05:35:04;;;;;;;3.20;2.90;;;;;;;;;;4945179;29;20459;-76
2022/06/02 05:37:46;;;;;;;4.47;3.00;;;;;;;;;;4951236;29;20455;-76
2022/06/02 05:40:20;;;;;;;5.00;3.40;;;;;;;;;;4946883;29;20454;-76
2022/06/02 05:42:51;;;;;;;3.70;2.87;;;;;;;;;;4932862;29;20445;-79
2022/06/02 05:45:24;;;;;;;4.97;2.93;;;;;;;;;;4943122;29;20463;-79
2022/06/02 05:47:57;;;;;;;10.43;3.47;;;;;;;;;;4951491;29;20446;-80
2022/06/02 05:50:30;;;;;;;5.30;3.33;;;;;;;;;;4931018;29;20503;-79
2022/06/02 05:53:02;;;;;;;3.67;3.33;;;;;;;;;;4938347;29;20451;-79
2022/06/02 05:55:35;;;;;;;3.47;3.17;;;;;;;;;;4942971;29;20443;-79
2022/06/02 05:58:23;;;;;;;3.97;2.93;;;;;;;;;;4948920;29;20534;-80
2022/06/02 06:00:56;;;;;;;5.53;3.20;;;;;;;;;;4924834;29;20570;-80
2022/06/02 06:03:46;;;;;;;3.70;3.37;;;;;;;;;;4949762;29;20449;-79
2022/06/02 06:06:18;;;;;;;3.77;3.10;;;;;;;;;;4942006;29;20565;-79
2022/06/02 06:09:01;;;;;;;3.30;2.90;;;;;;;;;;4951899;28;20490;-79
2022/06/02 06:11:35;;;;;;;3.57;3.27;;;;;;;;;;4935378;29;20574;-80
2022/06/02 06:14:13;;;;;;;3.50;3.20;;;;;;;;;;4950299;29;20964;-79
2022/06/02 06:16:44;;;;;;;4.53;3.17;;;;;;;;;;4951584;29;20550;-80
2022/06/02 06:19:18;;;;;;;3.73;3.27;;;;;;;;;;4932462;29;20435;-79
2022/06/02 06:21:49;;;;;;;3.90;3.10;;;;;;;;;;4931869;29;20923;-80
2022/06/02 06:24:28;;;;;;;3.50;3.20;;;;;;;;;;4947134;29;20491;-79
2022/06/02 06:27:01;;;;;;;3.83;3.23;;;;;;;;;;4952367;28;20443;-79
2022/06/02 06:29:40;;;;;;;9.53;3.20;;;;;;;;;;4951485;29;20467;-80
2022/06/02 06:32:15;;;;;;;3.17;2.70;;;;;;;;;;4947929;29;20977;-79
2022/06/02 06:34:45;;;;;;;3.90;3.00;;;;;;;;;;4952784;29;20672;-79
2022/06/02 06:37:20;;;;;;;3.57;2.87;;;;;;;;;;4947389;29;20464;-80
2022/06/02 06:39:52;;;;;;;6.37;2.93;;;;;;;;;;4953071;29;20442;-80
2022/06/02 06:42:28;;;;;;;2.50;2.30;;;;;;;;;;4947086;29;20989;-79
2022/06/02 06:44:58;;;;;;;2.80;2.53;;;;;;;;;;4941116;29;20526;-80
2022/06/02 06:47:29;;;;;;;2.90;2.70;;;;;;;;;;4966813;28;20451;-80
2022/06/02 06:50:00;;;;;;;3.83;3.30;;;;;;;;;;4953885;29;20482;-80
2022/06/02 06:52:37;;;;;;;3.90;2.87;;;;;;;;;;4948138;29;20819;-80
2022/06/02 06:55:09;;;;;;;4.33;3.17;;;;;;;;;;4931384;29;20854;-80
2022/06/02 06:57:41;;;;;;;2.70;2.50;;;;;;;;;;4951692;29;20439;-80
2022/06/02 07:00:09;;;;;;;2.63;2.43;;;;;;;;;;4947190;29;20428;-80
2022/06/02 07:02:48;;;;;;;2.87;2.57;;;;;;;;;;4951695;28;20455;-80
2022/06/02 07:05:17;;;;;;;5.67;2.50;;;;;;;;;;4933232;29;20938;-80
2022/06/02 07:07:48;;;;;;;2.70;2.50;;;;;;;;;;4949528;29;20447;-80
2022/06/02 07:10:17;;;;;;;4.53;2.90;;;;;;;;;;4933970;29;20475;-80
2022/06/02 07:12:51;;;;;;;3.57;2.70;;;;;;;;;;4949690;29;20462;-80
2022/06/02 07:15:22;;;;;;;18.13;4.17;;;;;;;;;;4953368;29;20780;-80
2022/06/02 07:17:52;;;;;;;3.87;2.47;;;;;;;;;;4952002;29;20444;-80
2022/06/02 07:20:21;;;;;;;2.63;2.43;;;;;;;;;;4952863;28;21005;-80
2022/06/02 07:22:52;;;;;;;2.97;2.67;;;;;;;;;;4954567;29;20792;-80
2022/06/02 07:25:24;;;;;;;3.77;2.30;;;;;;;;;;4948425;29;20447;-77
2022/06/02 07:27:56;;;;;;;3.67;2.80;;;;;;;;;;4924016;29;20447;-77
2022/06/02 07:30:36;;;;;;;2.50;2.30;;;;;;;;;;4950220;29;20475;-77
2022/06/02 07:33:36;;;;;;;3.43;2.97;;;;;;;;;;4952928;29;20529;-77
2022/06/02 07:36:09;;;;;;;3.03;2.80;;;;;;;;;;4908673;29;21018;-80
2022/06/02 07:38:44;;;;;;;3.00;2.80;;;;;;;;;;4913991;29;20475;-80
2022/06/02 07:41:17;;;;;;;3.40;2.60;;;;;;;;;;4919930;29;20439;-80
2022/06/02 07:43:59;;;;;;;2.93;2.73;;;;;;;;;;4954503;29;20440;-80
2022/06/02 07:46:42;;;;;;;2.80;2.50;;;;;;;;;;4935990;29;20540;-80
2022/06/02 07:49:23;;;;;;;4.00;2.50;;;;;;;;;;4934029;29;20527;-80
2022/06/02 07:51:54;;;;;;;2.50;2.30;;;;;;;;;;4929194;29;20472;-80
2022/06/02 07:54:25;;;;;;;3.17;2.87;;;;;;;;;;4918841;29;20536;-80
2022/06/02 07:56:56;;;;;;;2.90;2.70;;;;;;;;;;4919114;29;20819;-80
2022/06/02 07:59:37;;;;;;;3.33;2.70;;;;;;;;;;4919603;29;20428;-80
2022/06/02 08:02:20;;;;;;;3.23;2.73;;;;;;;;;;4936128;29;20538;-80
2022/06/02 08:04:51;;;;;;;2.50;2.30;;;;;;;;;;4935670;29;20511;-81
2022/06/02 08:07:23;;;;;;;4.40;2.50;;;;;;;;;;4934747;29;20507;-81
2022/06/02 08:09:57;;;;;;;2.90;2.70;;;;;;;;;;4915531;29;21058;-80
2022/06/02 08:12:27;;;;;;;3.30;3.00;;;;;;;;;;4899774;29;20460;-80
2022/06/02 08:15:07;;;;;;;3.30;2.60;;;;;;;;;;4920044;29;20436;-80
2022/06/02 08:17:37;;;;;;;3.07;1.73;;;;;;;;;;4935792;29;20448;-80
2022/06/02 08:20:11;;;;;;;2.77;2.57;;;;;;;;;;4935397;29;20436;-80
2022/06/02 08:22:42;;;;;;;3.00;2.30;;;;;;;;;;4934242;29;20456;-81
2022/06/02 08:25:11;;;;;;;2.50;2.30;;;;;;;;;;4915436;29;20478;-81
2022/06/02 08:27:45;;;;;;;2.80;2.27;;;;;;;;;;4916153;29;20551;-81
2022/06/02 08:30:15;;;;;;;2.87;2.50;;;;;;;;;;4934199;29;20478;-81
2022/06/02 08:32:56;;;;;;;2.90;2.70;;;;;;;;;;4935124;29;20437;-80
2022/06/02 08:35:26;;;;;;;2.10;1.90;;;;;;;;;;4930281;29;20935;-81
2022/06/02 08:37:59;;;;;;;2.87;2.10;;;;;;;;;;4935085;29;20456;-81
2022/06/02 08:40:50;;;;;;;2.97;2.77;;;;;;;;;;4933548;29;20441;-81
2022/06/02 08:43:27;;;;;;;2.40;2.20;;;;;;;;;;4914812;29;20548;-81
2022/06/02 08:46:21;;;;;;;3.70;2.60;;;;;;;;;;4934277;29;20801;-81
2022/06/02 08:49:02;;;;;;;3.97;3.07;;;;;;;;;;4906049;29;20501;-81
2022/06/02 08:51:49;;;;;;;3.40;2.47;;;;;;;;;;4928063;29;20704;-81
2022/06/02 08:54:34;;;;;;;3.33;2.77;;;;;;;;;;4934832;29;20527;-81
2022/06/02 08:57:16;;;;;;;3.50;2.60;;;;;;;;;;4932930;29;20808;-81
2022/06/02 09:00:07;;;;;;;2.60;2.40;;;;;;;;;;4946596;28;20847;-81
2022/06/02 09:02:52;;;;;;;3.00;2.70;;;;;;;;;;4952095;29;20457;-80
2022/06/02 09:05:27;;;;;;;2.80;2.23;;;;;;;;;;4952261;29;20439;-81
2022/06/02 09:08:03;;;;;;;2.77;2.57;;;;;;;;;;4948916;29;20538;-80
2022/06/02 09:10:39;;;;;;;2.80;2.50;;;;;;;;;;4934567;29;20456;-80
2022/06/02 09:13:24;;;;;;;3.10;2.80;;;;;;;;;;4951805;29;20435;-81
2022/06/02 09:15:59;;;;;;;3.00;2.37;;;;;;;;;;4952431;29;20474;-80
2022/06/02 09:18:43;;;;;;;2.97;2.77;;;;;;;;;;4953115;28;20455;-81
2022/06/02 09:21:14;;;;;;;4.43;2.63;;;;;;;;;;4952085;29;20491;-81
2022/06/02 09:23:55;;;;;;;2.63;2.30;;;;;;;;;;4952382;29;20792;-81
2022/06/02 09:26:29;;;;;;;2.90;2.60;;;;;;;;;;4952432;29;20450;-81
2022/06/02 09:29:03;;;;;;;8.40;2.70;;;;;;;;;;4943705;29;20438;-81
2022/06/02 09:31:54;;;;;;;3.00;2.37;;;;;;;;;;4940678;29;20464;-82
2022/06/02 09:34:32;;;;;;;3.27;3.00;;;;;;;;;;4932305;28;20440;-81
2022/06/02 09:37:26;;;;;;;3.90;2.90;;;;;;;;;;4957092;28;20783;-81
2022/06/02 09:40:13;;;;;;;3.27;2.70;;;;;;;;;;4940108;29;20436;-81
2022/06/02 09:43:02;;;;;;;3.10;2.80;;;;;;;;;;4934551;29;20444;-81
2022/06/02 09:45:38;;;;;;;3.17;2.63;;;;;;;;;;4932994;29;20436;-81
2022/06/02 09:48:09;;;;;;;2.53;2.33;;;;;;;;;;4932601;29;20444;-81
2022/06/02 09:50:53;;;;;;;3.90;2.87;;;;;;;;;;4942995;29;20487;-81
2022/06/02 09:53:41;;;;;;;3.20;3.00;;;;;;;;;;4952358;28;20486;-81
2022/06/02 09:56:19;;;;;;;2.90;2.70;;;;;;;;;;4885278;29;20456;-81
2022/06/02 09:59:06;;;;;;;3.30;2.67;;;;;;;;;;4917143;29;20454;-81
2022/06/02 10:01:38;;;;;;;3.27;2.73;;;;;;;;;;4934798;29;20436;-81
2022/06/02 10:04:21;;;;;;;2.63;2.20;;;;;;;;;;4920763;29;20512;-81
2022/06/02 10:07:06;;;;;;;4.43;3.10;;;;;;;;;;4925116;29;20515;-81
2022/06/02 10:09:39;;;;;;;3.83;2.50;;;;;;;;;;4943165;28;20474;-81
2022/06/02 10:15:04;;;;;;;2.93;2.63;;;;;;;;;;4937930;29;20442;-81
2022/06/02 10:17:41;;;;;;;2.37;2.17;;;;;;;;;;4954418;29;21162;-80
2022/06/02 10:20:16;;;;;;;3.70;3.00;;;;;;;;;;4948228;29;20423;-80
2022/06/02 10:22:50;;;;;;;5.97;3.40;;;;;;;;;;4945714;29;20434;-81
2022/06/02 10:25:28;;;;;;;3.77;3.37;;;;;;;;;;4949598;29;20458;-80
2022/06/02 10:28:24;;;;;;;2.60;2.40;;;;;;;;;;4914790;29;20462;-80
2022/06/02 10:31:10;;;;;;;3.37;3.07;;;;;;;;;;4929748;29;20501;-81
2022/06/02 10:33:52;;;;;;;2.80;2.60;;;;;;;;;;4942108;29;20470;-81
2022/06/02 10:36:39;;;;;;;3.67;3.33;;;;;;;;;;4928687;29;20430;-80
2022/06/02 10:39:21;;;;;;;3.13;2.93;;;;;;;;;;4945258;29;20451;-81
2022/06/02 10:42:00;;;;;;;2.90;2.70;;;;;;;;;;4914909;28;20898;-80
2022/06/02 10:44:53;;;;;;;3.27;2.83;;;;;;;;;;4928321;29;20460;-80
2022/06/02 10:47:38;;;;;;;2.90;2.70;;;;;;;;;;4946838;29;20522;-81
2022/06/02 10:50:15;;;;;;;2.60;2.40;;;;;;;;;;4935506;29;20482;-81
2022/06/02 10:52:55;;;;;;;2.77;2.57;;;;;;;;;;4931975;29;20476;-80
2022/06/02 10:55:46;;;;;;;3.10;2.70;;;;;;;;;;4941802;29;20440;-80
2022/06/02 10:58:29;;;;;;;3.23;2.90;;;;;;;;;;4919925;29;20555;-81
2022/06/02 11:01:14;;;;;;;2.80;2.60;;;;;;;;;;4927075;29;20798;-80
2022/06/02 11:04:01;;;;;;;3.33;2.77;;;;;;;;;;4944980;29;20444;-80
2022/06/02 11:06:49;;;;;;;2.70;2.50;;;;;;;;;;4928663;29;20446;-80
2022/06/02 11:09:35;;;;;;;4.33;2.70;;;;;;;;;;4931277;29;20475;-80
2022/06/02 11:12:28;;;;;;;3.00;2.80;;;;;;;;;;4945708;29;20844;-80
2022/06/02 11:15:20;;;;;;;3.50;3.20;;;;;;;;;;4929206;29;20435;-80
2022/06/02 11:18:01;;;;;;;3.47;3.00;;;;;;;;;;4928747;29;20595;-80
2022/06/02 11:20:49;;;;;;;3.30;2.60;;;;;;;;;;4930328;29;20448;-80
2022/06/02 11:23:36;;;;;;;3.47;3.27;;;;;;;;;;4912832;29;20983;-80
2022/06/02 11:26:17;;;;;;;3.17;2.50;;;;;;;;;;4924146;29;20448;-80
2022/06/02 11:29:02;;;;;;;2.93;2.73;;;;;;;;;;4919950;29;20989;-81
2022/06/02 11:31:41;;;;;;;2.73;2.53;;;;;;;;;;4949176;28;20472;-80
2022/06/02 11:34:25;;;;;;;3.33;3.03;;;;;;;;;;4931199;29;20444;-80
2022/06/02 11:37:11;;;;;;;3.83;2.90;;;;;;;;;;4928145;29;20470;-81
2022/06/02 11:39:47;;;;;;;3.00;2.80;;;;;;;;;;4949009;29;20469;-80
2022/06/02 11:42:23;;;;;;;3.70;3.20;;;;;;;;;;4952688;29;20438;-80
2022/06/02 11:44:57;;;;;;;3.77;2.67;;;;;;;;;;4952632;29;20990;-81
2022/06/02 11:47:41;;;;;;;2.90;2.40;;;;;;;;;;4951145;29;20442;-80
2022/06/02 11:50:17;;;;;;;7.37;3.17;;;;;;;;;;4938434;29;20486;-80
2022/06/02 11:52:49;;;;;;;3.20;2.97;;;;;;;;;;4937781;29;20542;-80
2022/06/02 11:55:22;;;;;;;5.00;3.20;;;;;;;;;;4942686;29;20542;-81
2022/06/02 11:58:04;;;;;;;3.10;2.73;;;;;;;;;;4951392;29;20446;-80
2022/06/02 12:00:41;;;;;;;3.90;3.30;;;;;;;;;;4942634;29;20911;-80
2022/06/02 12:03:22;;;;;;;3.13;2.93;;;;;;;;;;4947252;29;20466;-80
2022/06/02 12:06:10;;;;;;;3.30;3.07;;;;;;;;;;4946213;29;20774;-80
2022/06/02 12:09:03;;;;;;;2.80;2.60;;;;;;;;;;4945506;29;20450;-80
2022/06/02 12:11:47;;;;;;;2.80;2.60;;;;;;;;;;4896496;29;20497;-80
2022/06/02 12:14:38;;;;;;;4.27;2.63;;;;;;;;;;4953860;29;20455;-80
2022/06/02 12:17:23;;;;;;;4.27;3.10;;;;;;;;;;4939299;29;20538;-80
2022/06/02 12:20:02;;;;;;;3.83;3.47;;;;;;;;;;4954795;28;20439;-80
2022/06/02 12:22:46;;;;;;;2.67;2.47;;;;;;;;;;4948910;29;20589;-80
2022/06/02 12:25:31;;;;;;;3.33;2.90;;;;;;;;;;4946717;28;20852;-80
2022/06/02 12:28:19;;;;;;;3.13;2.83;;;;;;;;;;4969390;28;20443;-80
2022/06/02 12:30:51;;;;;;;4.30;3.30;;;;;;;;;;4949046;29;20463;-80
2022/06/02 12:33:22;;;;;;;2.90;2.67;;;;;;;;;;4939354;29;20447;-80
2022/06/02 12:36:07;;;;;;;3.07;2.80;;;;;;;;;;4945041;29;20433;-80
2022/06/02 12:39:07;;;;;;;3.10;2.77;;;;;;;;;;4945184;29;20553;-80
2022/06/02 12:41:47;;;;;;;3.50;3.20;;;;;;;;;;4948733;29;20445;-80
2022/06/02 12:44:32;;;;;;;3.40;3.00;;;;;;;;;;4954740;29;20450;-80
2022/06/02 12:47:20;;;;;;;3.33;3.03;;;;;;;;;;5087798;27;20966;-79
2022/06/02 12:50:10;;;;;;;3.30;3.00;;;;;;;;;;5088929;28;20429;-79
2022/06/02 12:52:51;;;;;;;3.00;2.80;;;;;;;;;;5084809;28;20422;-79
2022/06/02 12:58:52;;;;;;;3.33;3.03;;;;;;;;;;5048067;28;20438;-81
2022/06/02 13:01:28;;;;;;;4.70;2.70;;;;;;;;;;5060125;28;20883;-77
2022/06/02 13:04:18;;;;;;;2.93;2.67;;;;;;;;;;5081042;28;20506;-77
2022/06/02 13:07:10;;;;;;;3.67;2.87;;;;;;;;;;5119961;28;20858;-75
2022/06/02 13:09:56;;;;;;;4.20;3.37;;;;;;;;;;5085566;28;20429;-75
2022/06/02 13:12:34;;;;;;;2.87;2.57;;;;;;;;;;5084871;28;20491;-75
2022/06/02 13:15:09;;;;;;;3.10;2.90;;;;;;;;;;5086352;28;20449;-75
2022/06/02 13:17:56;;;;;;;4.03;2.93;;;;;;;;;;5119453;28;20435;-77
2022/06/02 13:20:45;;;;;;;3.30;3.10;;;;;;;;;;5083726;28;20445;-77
2022/06/02 13:23:23;;;;;;;4.60;3.43;;;;;;;;;;5086407;28;20445;-74
2022/06/02 13:26:09;;;;;;;3.40;3.00;;;;;;;;;;5084461;28;20872;-75
2022/06/02 13:28:51;;;;;;;3.77;3.03;;;;;;;;;;5118257;28;20425;-75
2022/06/02 13:31:40;;;;;;;3.60;3.30;;;;;;;;;;5082676;28;20441;-75
2022/06/02 13:34:24;;;;;;;3.70;3.40;;;;;;;;;;5084810;28;20837;-75
2022/06/02 13:36:57;;;;;;;3.23;2.93;;;;;;;;;;5115023;28;20528;-75
2022/06/02 13:39:42;;;;;;;3.97;3.57;;;;;;;;;;5087625;28;20778;-75
2022/06/02 13:42:20;;;;;;;4.40;3.23;;;;;;;;;;5079849;28;20436;-75
2022/06/02 13:45:08;;;;;;;3.30;2.90;;;;;;;;;;5119475;28;20936;-76
2022/06/02 13:47:45;;;;;;;3.33;3.03;;;;;;;;;;5082196;28;20437;-75
2022/06/02 13:50:32;;;;;;;3.50;2.97;;;;;;;;;;5084563;28;20480;-76
2022/06/02 13:53:17;;;;;;;4.30;3.40;;;;;;;;;;5084479;28;20475;-76
2022/06/02 13:58:50;;;;;;;3.20;2.90;;;;;;;;;;5054467;28;20772;-75
2022/06/02 14:01:25;;;;;;;3.00;2.80;;;;;;;;;;5072331;28;20536;-75
2022/06/02 14:04:08;;;;;;;3.17;2.97;;;;;;;;;;5054775;28;20425;-75
2022/06/02 14:06:37;;;;;;;3.00;2.70;;;;;;;;;;5071566;28;20956;-75
2022/06/02 14:09:19;;;;;;;7.60;3.43;;;;;;;;;;5072173;28;20430;-76
2022/06/02 14:11:53;;;;;;;3.70;2.90;;;;;;;;;;5072201;28;20462;-75
2022/06/02 14:14:47;;;;;;;3.13;2.70;;;;;;;;;;5103641;28;21063;-75
2022/06/02 14:17:21;;;;;;;3.13;2.93;;;;;;;;;;5008705;28;20441;-76
2022/06/02 14:20:03;;;;;;;4.13;3.17;;;;;;;;;;5105359;28;20445;-76
2022/06/02 14:22:37;;;;;;;2.80;2.60;;;;;;;;;;5099825;28;20838;-76
2022/06/02 14:25:14;;;;;;;2.70;2.50;;;;;;;;;;5070143;28;20481;-76
2022/06/02 14:27:51;;;;;;;2.93;2.73;;;;;;;;;;5071136;28;20529;-75
2022/06/02 14:30:19;;;;;;;3.40;3.10;;;;;;;;;;5102289;28;20457;-75
2022/06/02 14:32:51;;;;;;;3.10;2.90;;;;;;;;;;5071435;28;20875;-75
2022/06/02 14:35:31;;;;;;;3.43;3.13;;;;;;;;;;5053292;28;20439;-75
2022/06/02 14:38:02;;;;;;;3.40;3.10;;;;;;;;;;5053359;28;20874;-75
2022/06/02 14:40:31;;;;;;;3.83;3.20;;;;;;;;;;5059032;28;20850;-75
2022/06/02 14:43:05;;;;;;;3.03;2.83;;;;;;;;;;5068789;28;20782;-75
2022/06/02 14:45:38;;;;;;;4.13;2.97;;;;;;;;;;5091056;28;20520;-75
2022/06/02 14:48:06;;;;;;;3.00;2.80;;;;;;;;;;5090056;28;20430;-75
2022/06/02 14:50:36;;;;;;;3.30;3.00;;;;;;;;;;5073268;28;20429;-76
2022/06/02 14:53:20;;;;;;;3.03;2.83;;;;;;;;;;5073084;28;20782;-75
2022/06/02 14:55:52;;;;;;;3.37;3.17;;;;;;;;;;5068745;28;20457;-76
2022/06/02 14:58:25;;;;;;;4.37;3.10;;;;;;;;;;5052036;28;20557;-75
2022/06/02 15:00:57;;;;;;;2.87;2.63;;;;;;;;;;5051794;28;20469;-74
2022/06/02 15:03:43;;;;;;;3.07;2.80;;;;;;;;;;5070585;28;20411;-76
2022/06/02 15:06:18;;;;;;;3.27;2.97;;;;;;;;;;5069731;28;20588;-75
2022/06/02 15:09:09;;;;;;;3.43;2.97;;;;;;;;;;5071530;28;20440;-76
2022/06/02 15:11:46;;;;;;;3.27;3.07;;;;;;;;;;5088791;28;20544;-76
2022/06/02 15:14:18;;;;;;;7.37;2.77;;;;;;;;;;5073813;28;20800;-76
2022/06/02 15:16:53;;;;;;;3.37;3.03;;;;;;;;;;5072968;28;20488;-76
2022/06/02 15:19:42;;;;;;;3.93;3.63;;;;;;;;;;5087837;28;20430;-76
2022/06/02 15:22:32;;;;;;;6.93;3.20;;;;;;;;;;5072011;28;20449;-76
2022/06/02 15:25:07;;;;;;;5.97;3.37;;;;;;;;;;5072702;28;20482;-76
2022/06/02 15:27:49;;;;;;;3.50;3.30;;;;;;;;;;5087865;28;21039;-77
2022/06/02 15:30:23;;;;;;;3.30;3.10;;;;;;;;;;5064617;28;20478;-76
2022/06/02 15:33:06;;;;;;;2.90;2.70;;;;;;;;;;5078919;28;20593;-74
2022/06/02 15:35:41;;;;;;;3.70;2.67;;;;;;;;;;5070161;28;20452;-76
2022/06/02 15:38:25;;;;;;;3.30;3.10;;;;;;;;;;5071104;28;20548;-76
2022/06/02 15:41:10;;;;;;;2.90;2.70;;;;;;;;;;5072097;28;20460;-76
2022/06/02 15:43:54;;;;;;;3.10;2.90;;;;;;;;;;5062601;28;20452;-75
2022/06/02 15:46:39;;;;;;;3.43;3.10;;;;;;;;;;5075484;28;20608;-76
2022/06/02 15:49:21;;;;;;;3.30;3.10;;;;;;;;;;5067485;28;20438;-76
2022/06/02 15:52:10;;;;;;;4.20;3.83;;;;;;;;;;5073092;28;20882;-75
2022/06/02 15:54:54;;;;;;;4.03;3.60;;;;;;;;;;5071520;28;20446;-75
2022/06/02 15:57:39;;;;;;;4.20;3.07;;;;;;;;;;5058188;28;20436;-76